sensor_id;sensor_type;location;lat;lon;timestamp;temperature;humidity
53208;DHT22;39093;52.788;6.940;2023-08-20T00:01:37;17.50;99.90
53208;DHT22;39093;52.788;6.940;2023-08-20T00:04:04;17.50;99.90
53208;DHT22;39093;52.788;6.940;2023-08-20T00:06:32;17.40;99.90
53208;DHT22;39093;52.788;6.940;2023-08-20T00:08:59;17.40;99.90
53208;DHT22;39093;52.788;6.940;2023-08-20T00:11:26;17.40;99.90
53208;DHT22;39093;52.788;6.940;2023-08-20T00:13:53;17.40;99.90
53208;DHT22;39093;52.788;6.940;2023-08-20T00:16:20;17.40;99.90
53208;DHT22;39093;52.788;6.940;2023-08-20T00:18:48;17.30;99.90
53208;DHT22;39093;52.788;6.940;2023-08-20T00:21:15;17.30;99.90
53208;DHT22;39093;52.788;6.940;2023-08-20T00:23:47;17.30;99.90
53208;DHT22;39093;52.788;6.940;2023-08-20T00:26:14;17.30;99.90
53208;DHT22;39093;52.788;6.940;2023-08-20T00:28:44;17.20;99.90
53208;DHT22;39093;52.788;6.940;2023-08-20T00:31:11;17.30;99.90
53208;DHT22;39093;52.788;6.940;2023-08-20T00:33:38;17.30;99.90
53208;DHT22;39093;52.788;6.940;2023-08-20T00:36:05;17.20;99.90
53208;DHT22;39093;52.788;6.940;2023-08-20T00:38:31;17.30;99.90
53208;DHT22;39093;52.788;6.940;2023-08-20T00:40:58;17.30;99.90
53208;DHT22;39093;52.788;6.940;2023-08-20T00:43:25;17.20;99.90
53208;DHT22;39093;52.788;6.940;2023-08-20T00:45:52;17.20;99.90
53208;DHT22;39093;52.788;6.940;2023-08-20T00:48:19;17.20;99.90
53208;DHT22;39093;52.788;6.940;2023-08-20T00:50:46;17.20;99.90
53208;DHT22;39093;52.788;6.940;2023-08-20T00:53:13;17.20;99.90
53208;DHT22;39093;52.788;6.940;2023-08-20T00:55:42;17.20;99.90
53208;DHT22;39093;52.788;6.940;2023-08-20T00:58:10;17.10;99.90
53208;DHT22;39093;52.788;6.940;2023-08-20T01:00:37;17.10;99.90
53208;DHT22;39093;52.788;6.940;2023-08-20T01:03:04;17.10;99.90
53208;DHT22;39093;52.788;6.940;2023-08-20T01:05:33;17.10;99.90
53208;DHT22;39093;52.788;6.940;2023-08-20T01:13:58;17.00;99.90
53208;DHT22;39093;52.788;6.940;2023-08-20T01:16:25;17.00;99.90
53208;DHT22;39093;52.788;6.940;2023-08-20T01:18:52;17.00;99.90
53208;DHT22;39093;52.788;6.940;2023-08-20T01:21:39;16.90;99.90
53208;DHT22;39093;52.788;6.940;2023-08-20T01:30:08;16.90;99.90
53208;DHT22;39093;52.788;6.940;2023-08-20T01:32:37;16.90;99.90
53208;DHT22;39093;52.788;6.940;2023-08-20T01:35:05;16.90;99.90
53208;DHT22;39093;52.788;6.940;2023-08-20T01:37:32;16.90;99.90
53208;DHT22;39093;52.788;6.940;2023-08-20T01:40:00;16.90;99.90
53208;DHT22;39093;52.788;6.940;2023-08-20T01:42:27;16.90;99.90
53208;DHT22;39093;52.788;6.940;2023-08-20T01:44:53;16.80;99.90
53208;DHT22;39093;52.788;6.940;2023-08-20T01:47:20;16.80;99.90
53208;DHT22;39093;52.788;6.940;2023-08-20T01:49:47;16.80;99.90
53208;DHT22;39093;52.788;6.940;2023-08-20T01:52:14;16.80;99.90
53208;DHT22;39093;52.788;6.940;2023-08-20T01:54:41;16.80;99.90
53208;DHT22;39093;52.788;6.940;2023-08-20T01:57:08;16.80;99.90
53208;DHT22;39093;52.788;6.940;2023-08-20T01:59:35;16.80;99.90
53208;DHT22;39093;52.788;6.940;2023-08-20T02:02:02;16.80;99.90
53208;DHT22;39093;52.788;6.940;2023-08-20T02:04:31;16.80;99.90
53208;DHT22;39093;52.788;6.940;2023-08-20T02:06:58;16.70;99.90
53208;DHT22;39093;52.788;6.940;2023-08-20T02:09:25;16.70;99.90
53208;DHT22;39093;52.788;6.940;2023-08-20T02:11:52;16.70;99.90
53208;DHT22;39093;52.788;6.940;2023-08-20T02:14:19;16.70;99.90
53208;DHT22;39093;52.788;6.940;2023-08-20T02:16:49;16.70;99.90
53208;DHT22;39093;52.788;6.940;2023-08-20T02:19:16;16.70;99.90
53208;DHT22;39093;52.788;6.940;2023-08-20T02:21:43;16.60;99.90
53208;DHT22;39093;52.788;6.940;2023-08-20T02:24:09;16.60;99.90
53208;DHT22;39093;52.788;6.940;2023-08-20T02:26:36;16.60;99.90
53208;DHT22;39093;52.788;6.940;2023-08-20T02:29:04;16.60;99.90
53208;DHT22;39093;52.788;6.940;2023-08-20T02:31:32;16.60;99.90
53208;DHT22;39093;52.788;6.940;2023-08-20T02:33:59;16.50;99.90
53208;DHT22;39093;52.788;6.940;2023-08-20T02:36:25;16.50;99.90
53208;DHT22;39093;52.788;6.940;2023-08-20T02:38:52;16.50;99.90
53208;DHT22;39093;52.788;6.940;2023-08-20T02:41:19;16.50;99.90
53208;DHT22;39093;52.788;6.940;2023-08-20T02:43:47;16.50;99.90
53208;DHT22;39093;52.788;6.940;2023-08-20T02:46:14;16.60;99.90
53208;DHT22;39093;52.788;6.940;2023-08-20T02:48:41;16.50;99.90
53208;DHT22;39093;52.788;6.940;2023-08-20T02:51:08;16.50;99.90
53208;DHT22;39093;52.788;6.940;2023-08-20T02:53:35;16.50;99.90
53208;DHT22;39093;52.788;6.940;2023-08-20T02:56:02;16.50;99.90
53208;DHT22;39093;52.788;6.940;2023-08-20T02:58:30;16.50;99.90
53208;DHT22;39093;52.788;6.940;2023-08-20T03:00:57;16.50;99.90
53208;DHT22;39093;52.788;6.940;2023-08-20T03:03:24;16.40;99.90
53208;DHT22;39093;52.788;6.940;2023-08-20T03:05:51;16.50;99.90
53208;DHT22;39093;52.788;6.940;2023-08-20T03:08:18;16.40;99.90
53208;DHT22;39093;52.788;6.940;2023-08-20T03:10:45;16.40;99.90
53208;DHT22;39093;52.788;6.940;2023-08-20T03:13:12;16.40;99.90
53208;DHT22;39093;52.788;6.940;2023-08-20T03:15:39;16.40;99.90
53208;DHT22;39093;52.788;6.940;2023-08-20T03:18:06;16.40;99.90
53208;DHT22;39093;52.788;6.940;2023-08-20T03:20:33;16.40;99.90
53208;DHT22;39093;52.788;6.940;2023-08-20T03:23:01;16.40;99.90
53208;DHT22;39093;52.788;6.940;2023-08-20T03:25:28;16.40;99.90
53208;DHT22;39093;52.788;6.940;2023-08-20T03:27:55;16.40;99.90
53208;DHT22;39093;52.788;6.940;2023-08-20T03:30:22;16.40;99.90
53208;DHT22;39093;52.788;6.940;2023-08-20T03:32:49;16.30;99.90
53208;DHT22;39093;52.788;6.940;2023-08-20T03:35:16;16.30;99.90
53208;DHT22;39093;52.788;6.940;2023-08-20T03:37:43;16.30;99.90
53208;DHT22;39093;52.788;6.940;2023-08-20T03:40:10;16.30;99.90
53208;DHT22;39093;52.788;6.940;2023-08-20T03:42:37;16.30;99.90
53208;DHT22;39093;52.788;6.940;2023-08-20T03:45:04;16.30;99.90
53208;DHT22;39093;52.788;6.940;2023-08-20T03:47:31;16.20;99.90
53208;DHT22;39093;52.788;6.940;2023-08-20T03:49:59;16.20;99.90
53208;DHT22;39093;52.788;6.940;2023-08-20T03:52:26;16.20;99.90
53208;DHT22;39093;52.788;6.940;2023-08-20T03:54:53;16.20;99.90
53208;DHT22;39093;52.788;6.940;2023-08-20T03:57:20;16.10;99.90
53208;DHT22;39093;52.788;6.940;2023-08-20T03:59:47;16.20;99.90
53208;DHT22;39093;52.788;6.940;2023-08-20T04:02:14;16.10;99.90
53208;DHT22;39093;52.788;6.940;2023-08-20T04:04:44;16.10;99.90
53208;DHT22;39093;52.788;6.940;2023-08-20T04:07:11;16.10;99.90
53208;DHT22;39093;52.788;6.940;2023-08-20T04:09:38;16.10;99.90
53208;DHT22;39093;52.788;6.940;2023-08-20T04:12:06;16.10;99.90
53208;DHT22;39093;52.788;6.940;2023-08-20T04:14:33;16.00;99.90
53208;DHT22;39093;52.788;6.940;2023-08-20T04:17:00;16.10;99.90
53208;DHT22;39093;52.788;6.940;2023-08-20T04:19:27;16.10;99.90
53208;DHT22;39093;52.788;6.940;2023-08-20T04:21:53;16.00;99.90
53208;DHT22;39093;52.788;6.940;2023-08-20T04:24:20;16.00;99.90
53208;DHT22;39093;52.788;6.940;2023-08-20T04:26:47;16.10;99.90
53208;DHT22;39093;52.788;6.940;2023-08-20T04:29:14;16.00;99.90
53208;DHT22;39093;52.788;6.940;2023-08-20T04:31:41;16.10;99.90
53208;DHT22;39093;52.788;6.940;2023-08-20T04:34:08;16.00;99.90
53208;DHT22;39093;52.788;6.940;2023-08-20T04:36:35;16.10;99.90
53208;DHT22;39093;52.788;6.940;2023-08-20T04:39:02;16.10;99.90
53208;DHT22;39093;52.788;6.940;2023-08-20T04:41:31;16.10;99.90
53208;DHT22;39093;52.788;6.940;2023-08-20T04:43:58;16.10;99.90
53208;DHT22;39093;52.788;6.940;2023-08-20T04:46:25;16.10;99.90
53208;DHT22;39093;52.788;6.940;2023-08-20T04:48:52;16.10;99.90
53208;DHT22;39093;52.788;6.940;2023-08-20T04:51:19;16.00;99.90
53208;DHT22;39093;52.788;6.940;2023-08-20T04:53:45;16.10;99.90
53208;DHT22;39093;52.788;6.940;2023-08-20T04:56:14;16.00;99.90
53208;DHT22;39093;52.788;6.940;2023-08-20T04:58:40;16.00;99.90
53208;DHT22;39093;52.788;6.940;2023-08-20T05:01:10;16.00;99.90
53208;DHT22;39093;52.788;6.940;2023-08-20T05:03:37;16.00;99.90
53208;DHT22;39093;52.788;6.940;2023-08-20T05:06:04;16.00;99.90
53208;DHT22;39093;52.788;6.940;2023-08-20T05:08:31;16.00;99.90
53208;DHT22;39093;52.788;6.940;2023-08-20T05:10:58;16.00;99.90
53208;DHT22;39093;52.788;6.940;2023-08-20T05:13:25;16.10;99.90
53208;DHT22;39093;52.788;6.940;2023-08-20T05:15:52;16.10;99.90
53208;DHT22;39093;52.788;6.940;2023-08-20T05:18:19;16.10;99.90
53208;DHT22;39093;52.788;6.940;2023-08-20T05:20:46;16.10;99.90
53208;DHT22;39093;52.788;6.940;2023-08-20T05:23:13;16.20;99.90
53208;DHT22;39093;52.788;6.940;2023-08-20T05:25:40;16.20;99.90
53208;DHT22;39093;52.788;6.940;2023-08-20T05:28:07;16.20;99.90
53208;DHT22;39093;52.788;6.940;2023-08-20T05:30:34;16.30;99.90
53208;DHT22;39093;52.788;6.940;2023-08-20T05:33:01;16.30;99.90
53208;DHT22;39093;52.788;6.940;2023-08-20T05:35:28;16.30;99.90
53208;DHT22;39093;52.788;6.940;2023-08-20T05:37:55;16.30;99.90
53208;DHT22;39093;52.788;6.940;2023-08-20T05:40:22;16.40;99.90
53208;DHT22;39093;52.788;6.940;2023-08-20T05:42:49;16.40;99.90
53208;DHT22;39093;52.788;6.940;2023-08-20T05:45:18;16.40;99.90
53208;DHT22;39093;52.788;6.940;2023-08-20T05:47:45;16.50;99.90
53208;DHT22;39093;52.788;6.940;2023-08-20T05:50:12;16.50;99.90
53208;DHT22;39093;52.788;6.940;2023-08-20T05:52:38;16.50;99.90
53208;DHT22;39093;52.788;6.940;2023-08-20T05:55:06;16.60;99.90
53208;DHT22;39093;52.788;6.940;2023-08-20T05:57:34;16.60;99.90
53208;DHT22;39093;52.788;6.940;2023-08-20T06:00:04;16.70;99.90
53208;DHT22;39093;52.788;6.940;2023-08-20T06:02:34;16.80;99.90
53208;DHT22;39093;52.788;6.940;2023-08-20T06:05:01;16.70;99.90
53208;DHT22;39093;52.788;6.940;2023-08-20T06:07:28;16.70;99.90
53208;DHT22;39093;52.788;6.940;2023-08-20T06:09:55;16.80;99.90
53208;DHT22;39093;52.788;6.940;2023-08-20T06:12:24;16.90;99.90
53208;DHT22;39093;52.788;6.940;2023-08-20T06:14:51;16.90;99.90
53208;DHT22;39093;52.788;6.940;2023-08-20T06:17:18;17.00;99.90
53208;DHT22;39093;52.788;6.940;2023-08-20T06:19:45;17.10;99.90
53208;DHT22;39093;52.788;6.940;2023-08-20T06:22:12;17.10;99.90
53208;DHT22;39093;52.788;6.940;2023-08-20T06:24:39;17.20;99.90
53208;DHT22;39093;52.788;6.940;2023-08-20T06:27:05;17.20;99.90
53208;DHT22;39093;52.788;6.940;2023-08-20T06:29:32;17.20;99.90
53208;DHT22;39093;52.788;6.940;2023-08-20T06:31:59;17.40;99.90
53208;DHT22;39093;52.788;6.940;2023-08-20T06:34:26;17.40;99.90
53208;DHT22;39093;52.788;6.940;2023-08-20T06:36:53;17.50;99.90
53208;DHT22;39093;52.788;6.940;2023-08-20T06:39:20;17.60;99.90
53208;DHT22;39093;52.788;6.940;2023-08-20T06:41:47;17.60;99.90
53208;DHT22;39093;52.788;6.940;2023-08-20T06:44:14;17.70;99.90
53208;DHT22;39093;52.788;6.940;2023-08-20T06:46:41;17.80;99.90
53208;DHT22;39093;52.788;6.940;2023-08-20T06:49:08;17.90;99.90
53208;DHT22;39093;52.788;6.940;2023-08-20T06:51:35;17.90;99.90
53208;DHT22;39093;52.788;6.940;2023-08-20T06:54:03;17.90;99.90
53208;DHT22;39093;52.788;6.940;2023-08-20T06:56:33;18.00;99.90
53208;DHT22;39093;52.788;6.940;2023-08-20T06:59:00;18.10;99.90
53208;DHT22;39093;52.788;6.940;2023-08-20T07:01:28;18.30;99.90
53208;DHT22;39093;52.788;6.940;2023-08-20T07:03:55;18.50;99.90
53208;DHT22;39093;52.788;6.940;2023-08-20T07:06:22;18.70;99.90
53208;DHT22;39093;52.788;6.940;2023-08-20T07:08:49;19.10;99.90
53208;DHT22;39093;52.788;6.940;2023-08-20T07:11:17;19.50;99.90
53208;DHT22;39093;52.788;6.940;2023-08-20T07:13:43;19.70;99.90
53208;DHT22;39093;52.788;6.940;2023-08-20T07:16:11;20.00;99.90
53208;DHT22;39093;52.788;6.940;2023-08-20T07:18:38;20.30;99.90
53208;DHT22;39093;52.788;6.940;2023-08-20T07:21:05;20.50;99.90
53208;DHT22;39093;52.788;6.940;2023-08-20T07:23:34;20.60;99.90
53208;DHT22;39093;52.788;6.940;2023-08-20T07:26:09;20.70;99.90
53208;DHT22;39093;52.788;6.940;2023-08-20T07:28:37;20.90;99.90
53208;DHT22;39093;52.788;6.940;2023-08-20T07:31:29;21.00;99.90
53208;DHT22;39093;52.788;6.940;2023-08-20T07:33:57;21.10;99.90
53208;DHT22;39093;52.788;6.940;2023-08-20T07:36:31;21.20;99.90
53208;DHT22;39093;52.788;6.940;2023-08-20T07:38:59;21.20;99.90
53208;DHT22;39093;52.788;6.940;2023-08-20T07:41:29;21.10;99.90
53208;DHT22;39093;52.788;6.940;2023-08-20T07:43:56;21.20;99.90
53208;DHT22;39093;52.788;6.940;2023-08-20T07:46:23;21.10;99.90
53208;DHT22;39093;52.788;6.940;2023-08-20T07:48:50;21.10;99.90
53208;DHT22;39093;52.788;6.940;2023-08-20T07:51:17;21.00;99.90
53208;DHT22;39093;52.788;6.940;2023-08-20T07:53:46;21.20;99.90
53208;DHT22;39093;52.788;6.940;2023-08-20T07:56:13;21.20;99.90
53208;DHT22;39093;52.788;6.940;2023-08-20T07:58:40;21.20;99.90
53208;DHT22;39093;52.788;6.940;2023-08-20T08:01:07;21.20;99.90
53208;DHT22;39093;52.788;6.940;2023-08-20T08:03:34;21.20;99.90
53208;DHT22;39093;52.788;6.940;2023-08-20T08:06:01;21.20;99.90
53208;DHT22;39093;52.788;6.940;2023-08-20T08:08:28;21.30;99.90
53208;DHT22;39093;52.788;6.940;2023-08-20T08:10:55;21.30;99.90
53208;DHT22;39093;52.788;6.940;2023-08-20T08:13:23;21.30;99.90
53208;DHT22;39093;52.788;6.940;2023-08-20T08:15:50;21.40;99.90
53208;DHT22;39093;52.788;6.940;2023-08-20T08:18:18;21.30;99.90
53208;DHT22;39093;52.788;6.940;2023-08-20T08:20:46;21.30;99.90
53208;DHT22;39093;52.788;6.940;2023-08-20T08:23:13;21.30;99.90
53208;DHT22;39093;52.788;6.940;2023-08-20T08:25:40;21.30;99.90
53208;DHT22;39093;52.788;6.940;2023-08-20T08:28:07;21.30;99.90
53208;DHT22;39093;52.788;6.940;2023-08-20T08:30:34;21.40;99.90
53208;DHT22;39093;52.788;6.940;2023-08-20T08:33:01;21.40;99.90
53208;DHT22;39093;52.788;6.940;2023-08-20T08:35:29;21.50;99.90
53208;DHT22;39093;52.788;6.940;2023-08-20T08:37:56;21.50;99.90
53208;DHT22;39093;52.788;6.940;2023-08-20T08:40:27;21.60;99.90
53208;DHT22;39093;52.788;6.940;2023-08-20T08:42:55;21.70;99.90
53208;DHT22;39093;52.788;6.940;2023-08-20T08:45:22;21.70;99.90
53208;DHT22;39093;52.788;6.940;2023-08-20T08:47:51;21.70;99.90
53208;DHT22;39093;52.788;6.940;2023-08-20T08:50:21;21.70;99.90
53208;DHT22;39093;52.788;6.940;2023-08-20T08:52:51;21.80;99.90
53208;DHT22;39093;52.788;6.940;2023-08-20T08:55:18;21.90;99.90
53208;DHT22;39093;52.788;6.940;2023-08-20T08:57:45;21.90;99.90
53208;DHT22;39093;52.788;6.940;2023-08-20T09:00:13;22.00;99.90
53208;DHT22;39093;52.788;6.940;2023-08-20T09:02:40;22.00;99.90
53208;DHT22;39093;52.788;6.940;2023-08-20T09:05:07;22.10;99.90
53208;DHT22;39093;52.788;6.940;2023-08-20T09:07:35;22.10;99.90
53208;DHT22;39093;52.788;6.940;2023-08-20T09:10:02;22.20;99.90
53208;DHT22;39093;52.788;6.940;2023-08-20T09:12:34;22.30;99.90
53208;DHT22;39093;52.788;6.940;2023-08-20T09:15:02;22.30;99.90
53208;DHT22;39093;52.788;6.940;2023-08-20T09:17:29;22.40;99.90
53208;DHT22;39093;52.788;6.940;2023-08-20T09:19:56;22.40;99.90
53208;DHT22;39093;52.788;6.940;2023-08-20T09:22:27;22.40;99.90
53208;DHT22;39093;52.788;6.940;2023-08-20T09:24:55;22.50;99.90
53208;DHT22;39093;52.788;6.940;2023-08-20T09:27:23;22.50;99.90
53208;DHT22;39093;52.788;6.940;2023-08-20T09:29:55;22.50;99.90
53208;DHT22;39093;52.788;6.940;2023-08-20T09:32:24;22.60;99.90
53208;DHT22;39093;52.788;6.940;2023-08-20T09:34:53;22.60;99.90
53208;DHT22;39093;52.788;6.940;2023-08-20T09:37:22;22.60;99.90
53208;DHT22;39093;52.788;6.940;2023-08-20T09:39:52;22.70;99.90
53208;DHT22;39093;52.788;6.940;2023-08-20T09:42:19;22.70;99.90
53208;DHT22;39093;52.788;6.940;2023-08-20T09:44:52;22.70;99.90
53208;DHT22;39093;52.788;6.940;2023-08-20T09:47:25;22.70;99.90
53208;DHT22;39093;52.788;6.940;2023-08-20T09:49:54;22.80;99.90
53208;DHT22;39093;52.788;6.940;2023-08-20T09:52:55;22.90;99.90
53208;DHT22;39093;52.788;6.940;2023-08-20T09:55:26;23.00;99.90
53208;DHT22;39093;52.788;6.940;2023-08-20T09:57:56;23.10;99.90
53208;DHT22;39093;52.788;6.940;2023-08-20T10:00:24;23.30;99.90
53208;DHT22;39093;52.788;6.940;2023-08-20T10:02:52;23.40;99.90
53208;DHT22;39093;52.788;6.940;2023-08-20T10:05:19;23.40;99.90
53208;DHT22;39093;52.788;6.940;2023-08-20T10:07:47;23.50;99.90
53208;DHT22;39093;52.788;6.940;2023-08-20T10:10:15;23.50;99.90
53208;DHT22;39093;52.788;6.940;2023-08-20T10:12:44;23.60;99.90
53208;DHT22;39093;52.788;6.940;2023-08-20T10:15:12;23.60;99.90
53208;DHT22;39093;52.788;6.940;2023-08-20T10:17:44;23.70;99.90
53208;DHT22;39093;52.788;6.940;2023-08-20T10:20:14;23.80;99.90
53208;DHT22;39093;52.788;6.940;2023-08-20T10:22:44;23.90;99.90
53208;DHT22;39093;52.788;6.940;2023-08-20T10:25:12;24.00;99.90
53208;DHT22;39093;52.788;6.940;2023-08-20T10:27:48;24.00;99.90
53208;DHT22;39093;52.788;6.940;2023-08-20T10:30:22;24.00;99.90
53208;DHT22;39093;52.788;6.940;2023-08-20T10:32:56;24.10;99.90
53208;DHT22;39093;52.788;6.940;2023-08-20T10:35:46;24.10;99.90
53208;DHT22;39093;52.788;6.940;2023-08-20T10:38:16;24.20;99.90
53208;DHT22;39093;52.788;6.940;2023-08-20T10:43:39;24.10;99.90
53208;DHT22;39093;52.788;6.940;2023-08-20T10:46:23;24.20;99.90
53208;DHT22;39093;52.788;6.940;2023-08-20T10:48:59;24.30;99.90
53208;DHT22;39093;52.788;6.940;2023-08-20T10:51:30;24.30;99.90
53208;DHT22;39093;52.788;6.940;2023-08-20T10:56:53;24.60;99.90
53208;DHT22;39093;52.788;6.940;2023-08-20T10:59:28;24.70;99.90
53208;DHT22;39093;52.788;6.940;2023-08-20T11:02:01;24.70;99.90
53208;DHT22;39093;52.788;6.940;2023-08-20T11:04:32;24.90;99.90
53208;DHT22;39093;52.788;6.940;2023-08-20T11:07:00;24.90;99.90
53208;DHT22;39093;52.788;6.940;2023-08-20T11:09:29;25.00;99.90
53208;DHT22;39093;52.788;6.940;2023-08-20T11:11:58;25.20;99.90
53208;DHT22;39093;52.788;6.940;2023-08-20T11:14:26;25.40;99.90
53208;DHT22;39093;52.788;6.940;2023-08-20T11:16:53;25.60;99.90
53208;DHT22;39093;52.788;6.940;2023-08-20T11:19:22;25.60;99.90
53208;DHT22;39093;52.788;6.940;2023-08-20T11:21:49;25.60;99.90
53208;DHT22;39093;52.788;6.940;2023-08-20T11:24:17;25.70;99.90
53208;DHT22;39093;52.788;6.940;2023-08-20T11:26:47;25.80;99.90
53208;DHT22;39093;52.788;6.940;2023-08-20T11:29:16;26.00;99.90
53208;DHT22;39093;52.788;6.940;2023-08-20T11:31:49;26.10;99.90
53208;DHT22;39093;52.788;6.940;2023-08-20T11:34:18;26.20;99.90
53208;DHT22;39093;52.788;6.940;2023-08-20T11:36:46;26.30;99.90
53208;DHT22;39093;52.788;6.940;2023-08-20T11:39:13;26.40;99.90
53208;DHT22;39093;52.788;6.940;2023-08-20T11:41:40;26.50;99.90
53208;DHT22;39093;52.788;6.940;2023-08-20T11:44:18;26.70;99.90
53208;DHT22;39093;52.788;6.940;2023-08-20T11:46:45;26.80;98.80
53208;DHT22;39093;52.788;6.940;2023-08-20T11:49:13;26.90;99.40
53208;DHT22;39093;52.788;6.940;2023-08-20T11:51:42;27.10;98.50
53208;DHT22;39093;52.788;6.940;2023-08-20T11:54:14;27.40;96.10
53208;DHT22;39093;52.788;6.940;2023-08-20T11:56:45;27.40;97.20
53208;DHT22;39093;52.788;6.940;2023-08-20T11:59:14;27.60;98.80
53208;DHT22;39093;52.788;6.940;2023-08-20T12:01:42;27.70;98.30
53208;DHT22;39093;52.788;6.940;2023-08-20T12:04:10;27.90;97.20
53208;DHT22;39093;52.788;6.940;2023-08-20T12:06:38;28.30;98.30
53208;DHT22;39093;52.788;6.940;2023-08-20T12:09:24;28.70;96.90
53208;DHT22;39093;52.788;6.940;2023-08-20T12:11:52;29.20;94.90
53208;DHT22;39093;52.788;6.940;2023-08-20T12:14:22;29.50;96.70
53208;DHT22;39093;52.788;6.940;2023-08-20T12:16:53;29.80;95.40
53208;DHT22;39093;52.788;6.940;2023-08-20T12:19:20;30.00;95.70
53208;DHT22;39093;52.788;6.940;2023-08-20T12:21:47;30.20;96.80
53208;DHT22;39093;52.788;6.940;2023-08-20T12:24:16;30.20;94.80
53208;DHT22;39093;52.788;6.940;2023-08-20T12:26:43;30.70;93.30
53208;DHT22;39093;52.788;6.940;2023-08-20T12:29:10;31.20;92.20
53208;DHT22;39093;52.788;6.940;2023-08-20T12:31:37;31.50;91.30
53208;DHT22;39093;52.788;6.940;2023-08-20T12:34:04;31.40;92.10
53208;DHT22;39093;52.788;6.940;2023-08-20T12:36:32;30.60;90.60
53208;DHT22;39093;52.788;6.940;2023-08-20T12:38:59;30.00;91.40
53208;DHT22;39093;52.788;6.940;2023-08-20T12:41:26;30.00;91.00
53208;DHT22;39093;52.788;6.940;2023-08-20T12:43:53;29.30;91.20
53208;DHT22;39093;52.788;6.940;2023-08-20T12:46:20;28.70;91.70
53208;DHT22;39093;52.788;6.940;2023-08-20T12:48:47;28.30;92.10
53208;DHT22;39093;52.788;6.940;2023-08-20T12:51:16;28.20;92.80
53208;DHT22;39093;52.788;6.940;2023-08-20T12:53:44;28.00;93.30
53208;DHT22;39093;52.788;6.940;2023-08-20T12:56:11;28.50;94.50
53208;DHT22;39093;52.788;6.940;2023-08-20T12:58:39;29.10;94.50
53208;DHT22;39093;52.788;6.940;2023-08-20T13:01:06;29.10;92.30
53208;DHT22;39093;52.788;6.940;2023-08-20T13:03:34;28.70;91.30
53208;DHT22;39093;52.788;6.940;2023-08-20T13:06:01;28.40;92.70
53208;DHT22;39093;52.788;6.940;2023-08-20T13:08:28;28.50;93.10
53208;DHT22;39093;52.788;6.940;2023-08-20T13:10:57;28.90;93.40
53208;DHT22;39093;52.788;6.940;2023-08-20T13:13:25;29.20;92.30
53208;DHT22;39093;52.788;6.940;2023-08-20T13:15:53;29.50;92.40
53208;DHT22;39093;52.788;6.940;2023-08-20T13:18:20;30.20;91.90
53208;DHT22;39093;52.788;6.940;2023-08-20T13:20:52;30.70;91.70
53208;DHT22;39093;52.788;6.940;2023-08-20T13:23:20;30.40;91.50
53208;DHT22;39093;52.788;6.940;2023-08-20T13:25:47;29.90;91.20
53208;DHT22;39093;52.788;6.940;2023-08-20T13:28:14;29.70;90.00
53208;DHT22;39093;52.788;6.940;2023-08-20T13:30:43;29.40;90.60
53208;DHT22;39093;52.788;6.940;2023-08-20T13:33:11;29.00;90.90
53208;DHT22;39093;52.788;6.940;2023-08-20T13:35:38;29.50;91.90
53208;DHT22;39093;52.788;6.940;2023-08-20T13:38:08;30.20;91.50
53208;DHT22;39093;52.788;6.940;2023-08-20T13:40:35;30.90;90.90
53208;DHT22;39093;52.788;6.940;2023-08-20T13:43:03;31.50;90.30
53208;DHT22;39093;52.788;6.940;2023-08-20T13:45:32;32.20;90.30
53208;DHT22;39093;52.788;6.940;2023-08-20T13:47:59;32.00;87.00
53208;DHT22;39093;52.788;6.940;2023-08-20T13:50:26;31.40;88.30
53208;DHT22;39093;52.788;6.940;2023-08-20T13:52:53;31.10;90.70
53208;DHT22;39093;52.788;6.940;2023-08-20T13:55:20;31.60;89.80
53208;DHT22;39093;52.788;6.940;2023-08-20T13:57:48;32.30;87.20
53208;DHT22;39093;52.788;6.940;2023-08-20T14:00:15;33.00;88.90
53208;DHT22;39093;52.788;6.940;2023-08-20T14:02:42;33.50;88.40
53208;DHT22;39093;52.788;6.940;2023-08-20T14:05:09;33.90;86.30
53208;DHT22;39093;52.788;6.940;2023-08-20T14:07:36;33.30;84.70
53208;DHT22;39093;52.788;6.940;2023-08-20T14:10:04;32.80;85.70
53208;DHT22;39093;52.788;6.940;2023-08-20T14:12:31;33.00;84.40
53208;DHT22;39093;52.788;6.940;2023-08-20T14:14:58;33.40;86.30
53208;DHT22;39093;52.788;6.940;2023-08-20T14:17:25;33.80;84.30
53208;DHT22;39093;52.788;6.940;2023-08-20T14:19:52;34.10;83.10
53208;DHT22;39093;52.788;6.940;2023-08-20T14:22:19;34.40;82.40
53208;DHT22;39093;52.788;6.940;2023-08-20T14:24:46;34.60;80.80
53208;DHT22;39093;52.788;6.940;2023-08-20T14:27:13;34.60;80.50
53208;DHT22;39093;52.788;6.940;2023-08-20T14:29:41;34.70;80.60
53208;DHT22;39093;52.788;6.940;2023-08-20T14:32:08;34.90;79.00
53208;DHT22;39093;52.788;6.940;2023-08-20T14:34:35;35.10;80.30
53208;DHT22;39093;52.788;6.940;2023-08-20T14:37:02;34.80;79.10
53208;DHT22;39093;52.788;6.940;2023-08-20T14:39:30;34.20;77.10
53208;DHT22;39093;52.788;6.940;2023-08-20T14:41:58;33.30;78.50
53208;DHT22;39093;52.788;6.940;2023-08-20T14:44:26;32.70;79.80
53208;DHT22;39093;52.788;6.940;2023-08-20T14:46:54;33.00;79.30
53208;DHT22;39093;52.788;6.940;2023-08-20T14:49:21;32.80;79.00
53208;DHT22;39093;52.788;6.940;2023-08-20T14:51:48;32.70;78.90
53208;DHT22;39093;52.788;6.940;2023-08-20T14:54:15;33.30;78.00
53208;DHT22;39093;52.788;6.940;2023-08-20T14:56:42;33.80;78.30
53208;DHT22;39093;52.788;6.940;2023-08-20T14:59:09;34.00;76.70
53208;DHT22;39093;52.788;6.940;2023-08-20T15:01:37;34.10;76.70
53208;DHT22;39093;52.788;6.940;2023-08-20T15:04:04;33.90;74.90
53208;DHT22;39093;52.788;6.940;2023-08-20T15:06:30;33.50;76.90
53208;DHT22;39093;52.788;6.940;2023-08-20T15:09:01;33.60;77.60
53208;DHT22;39093;52.788;6.940;2023-08-20T15:11:27;34.00;76.80
53208;DHT22;39093;52.788;6.940;2023-08-20T15:13:54;34.20;74.10
53208;DHT22;39093;52.788;6.940;2023-08-20T15:16:21;34.40;75.30
53208;DHT22;39093;52.788;6.940;2023-08-20T15:18:49;34.40;74.40
53208;DHT22;39093;52.788;6.940;2023-08-20T15:21:16;34.50;72.90
53208;DHT22;39093;52.788;6.940;2023-08-20T15:23:42;34.30;72.90
53208;DHT22;39093;52.788;6.940;2023-08-20T15:26:10;34.40;73.00
53208;DHT22;39093;52.788;6.940;2023-08-20T15:28:37;34.50;70.80
53208;DHT22;39093;52.788;6.940;2023-08-20T15:31:03;34.90;68.40
53208;DHT22;39093;52.788;6.940;2023-08-20T15:33:30;34.70;69.60
53208;DHT22;39093;52.788;6.940;2023-08-20T15:35:58;34.50;71.20
53208;DHT22;39093;52.788;6.940;2023-08-20T15:38:26;34.80;71.00
53208;DHT22;39093;52.788;6.940;2023-08-20T15:40:57;35.00;70.90
53208;DHT22;39093;52.788;6.940;2023-08-20T15:43:25;34.70;71.80
53208;DHT22;39093;52.788;6.940;2023-08-20T15:45:52;35.20;70.70
53208;DHT22;39093;52.788;6.940;2023-08-20T15:48:19;34.80;69.60
53208;DHT22;39093;52.788;6.940;2023-08-20T15:50:46;34.80;71.80
53208;DHT22;39093;52.788;6.940;2023-08-20T15:53:14;34.70;70.10